createdAt,value
2023-05-10T00:00:31.963Z,0.00
2023-05-10T00:01:31.941Z,0.00
2023-05-10T00:02:32.137Z,0.00
2023-05-10T00:03:32.057Z,0.00
2023-05-10T00:04:31.912Z,0.00
2023-05-10T00:05:31.894Z,0.00
2023-05-10T00:06:31.881Z,0.00
2023-05-10T00:07:31.884Z,0.00
2023-05-10T00:08:31.897Z,0.00
2023-05-10T00:09:31.881Z,0.00
2023-05-10T00:10:31.896Z,0.00
2023-05-10T00:11:31.856Z,0.00
2023-05-10T00:12:31.821Z,0.00
2023-05-10T00:13:31.901Z,0.00
2023-05-10T00:14:32.003Z,0.00
2023-05-10T00:15:31.794Z,0.00
2023-05-10T00:16:31.831Z,0.00
2023-05-10T00:17:32.011Z,0.00
2023-05-10T00:18:31.759Z,0.00
2023-05-10T00:19:31.764Z,0.00
2023-05-10T00:20:31.791Z,0.00
2023-05-10T00:21:31.742Z,0.00
2023-05-10T00:22:31.741Z,0.00
2023-05-10T00:23:31.725Z,0.00
2023-05-10T00:24:31.723Z,0.00
2023-05-10T00:25:31.708Z,0.00
2023-05-10T00:26:31.736Z,0.00
2023-05-10T00:27:31.684Z,0.00
2023-05-10T00:28:31.668Z,0.00
2023-05-10T00:29:31.670Z,0.00
2023-05-10T00:30:31.653Z,0.00
2023-05-10T00:31:31.732Z,0.00
2023-05-10T00:32:31.806Z,0.00
2023-05-10T00:33:31.618Z,0.00
2023-05-10T00:34:31.616Z,0.00
2023-05-10T00:35:31.627Z,0.00
2023-05-10T00:36:31.594Z,0.00
2023-05-10T00:37:31.582Z,0.00
2023-05-10T00:38:31.610Z,0.00
2023-05-10T00:39:31.574Z,0.00
2023-05-10T00:40:31.548Z,0.00
2023-05-10T00:41:31.549Z,0.00
2023-05-10T00:42:31.533Z,0.00
2023-05-10T00:43:31.531Z,0.00
2023-05-10T00:44:31.531Z,0.00
2023-05-10T00:45:31.513Z,0.00
2023-05-10T00:46:31.572Z,0.00
2023-05-10T00:47:31.498Z,0.00
2023-05-10T00:48:31.472Z,0.00
2023-05-10T00:49:31.465Z,0.00
2023-05-10T00:50:31.491Z,0.00
2023-05-10T00:51:31.444Z,0.00
2023-05-10T00:52:31.431Z,0.00
2023-05-10T00:53:31.418Z,0.00
2023-05-10T00:54:31.402Z,0.00
2023-05-10T00:55:31.409Z,0.00
2023-05-10T00:56:31.419Z,0.00
2023-05-10T00:57:31.382Z,0.00
2023-05-10T00:58:31.362Z,0.00
2023-05-10T00:59:31.379Z,0.00
2023-05-10T01:00:31.360Z,0.00
2023-05-10T01:01:31.359Z,0.00
2023-05-10T01:02:31.421Z,0.00
2023-05-10T01:03:31.389Z,0.00
2023-05-10T01:04:31.358Z,0.00
2023-05-10T01:05:31.329Z,0.00
2023-05-10T01:06:31.299Z,0.00
2023-05-10T01:07:31.295Z,0.00
2023-05-10T01:08:31.310Z,0.00
2023-05-10T01:09:31.261Z,0.00
2023-05-10T01:10:31.250Z,0.00
2023-05-10T01:11:31.242Z,0.00
2023-05-10T01:12:31.296Z,0.00
2023-05-10T01:13:31.273Z,0.00
2023-05-10T01:14:31.230Z,0.00
2023-05-10T01:15:31.210Z,0.00
2023-05-10T01:16:31.205Z,0.00
2023-05-10T01:17:31.195Z,0.00
2023-05-10T01:18:31.175Z,0.00
2023-05-10T01:19:31.161Z,0.00
2023-05-10T01:20:31.180Z,0.00
2023-05-10T01:21:31.142Z,0.00
2023-05-10T01:22:31.125Z,0.00
2023-05-10T01:23:31.128Z,0.00
2023-05-10T01:24:31.095Z,0.00
2023-05-10T01:25:31.109Z,0.00
2023-05-10T01:26:31.142Z,0.00
2023-05-10T01:27:31.079Z,0.00
2023-05-10T01:28:31.122Z,0.00
2023-05-10T01:29:31.058Z,0.00
2023-05-10T01:30:31.041Z,0.00
2023-05-10T01:31:31.068Z,0.00
2023-05-10T01:32:31.080Z,0.00
2023-05-10T01:33:31.099Z,0.00
2023-05-10T01:34:31.004Z,0.00
2023-05-10T01:35:31.006Z,0.00
2023-05-10T01:36:30.984Z,0.00
2023-05-10T01:37:30.995Z,0.00
2023-05-10T01:38:30.990Z,0.00
2023-05-10T01:39:30.958Z,0.00
2023-05-10T01:40:30.950Z,0.00
2023-05-10T01:41:30.936Z,0.00
2023-05-10T01:42:30.942Z,0.00
2023-05-10T01:43:30.942Z,0.00
2023-05-10T01:44:30.934Z,0.00
2023-05-10T01:45:30.895Z,0.00
2023-05-10T01:46:30.945Z,0.00
2023-05-10T01:47:30.975Z,0.00
2023-05-10T01:48:30.868Z,0.00
2023-05-10T01:49:30.853Z,0.00
2023-05-10T01:50:30.875Z,0.00
2023-05-10T01:51:30.836Z,0.00
2023-05-10T01:52:30.822Z,0.00
2023-05-10T01:53:30.815Z,0.00
2023-05-10T01:54:30.811Z,0.00
2023-05-10T01:55:30.808Z,0.00
2023-05-10T01:56:30.817Z,0.00
2023-05-10T01:57:30.736Z,0.00
2023-05-10T01:58:30.716Z,0.00
2023-05-10T01:59:30.701Z,0.00
2023-05-10T02:00:30.789Z,0.00
2023-05-10T02:01:30.737Z,0.00
2023-05-10T02:02:30.787Z,0.00
2023-05-10T02:03:30.734Z,0.00
2023-05-10T02:04:30.721Z,0.00
2023-05-10T02:05:30.668Z,0.00
2023-05-10T02:06:30.626Z,0.00
2023-05-10T02:07:30.623Z,0.00
2023-05-10T02:08:30.646Z,0.00
2023-05-10T02:09:30.656Z,0.00
2023-05-10T02:10:30.655Z,0.00
2023-05-10T02:11:30.586Z,0.00
2023-05-10T02:12:30.567Z,0.00
2023-05-10T02:13:30.665Z,0.00
2023-05-10T02:14:30.584Z,0.00
2023-05-10T02:15:30.532Z,0.00
2023-05-10T02:16:30.557Z,0.00
2023-05-10T02:17:30.529Z,0.00
2023-05-10T02:18:30.512Z,0.00
2023-05-10T02:19:30.500Z,0.00
2023-05-10T02:20:30.527Z,0.00
2023-05-10T02:21:30.493Z,0.00
2023-05-10T02:22:30.469Z,0.00
2023-05-10T02:23:30.474Z,0.00
2023-05-10T02:24:30.464Z,0.00
2023-05-10T02:25:30.452Z,0.00
2023-05-10T02:26:30.486Z,0.00
2023-05-10T02:27:30.437Z,0.00
2023-05-10T02:28:30.414Z,0.00
2023-05-10T02:29:30.402Z,0.00
2023-05-10T02:30:30.392Z,0.00
2023-05-10T02:31:30.391Z,0.00
2023-05-10T02:32:30.405Z,0.00
2023-05-10T02:33:30.367Z,0.00
2023-05-10T02:34:30.349Z,0.00
2023-05-10T02:35:30.349Z,0.00
2023-05-10T02:36:30.334Z,0.00
2023-05-10T02:37:30.316Z,0.00
2023-05-10T02:38:30.343Z,0.00
2023-05-10T02:39:30.306Z,0.00
2023-05-10T02:40:30.287Z,0.00
2023-05-10T02:41:30.273Z,0.00
2023-05-10T02:42:30.263Z,0.00
2023-05-10T02:43:30.262Z,0.00
2023-05-10T02:44:30.266Z,0.00
2023-05-10T02:45:30.234Z,0.00
2023-05-10T02:46:30.297Z,0.00
2023-05-10T02:47:30.262Z,0.00
2023-05-10T02:48:30.227Z,0.00
2023-05-10T02:49:30.217Z,0.00
2023-05-10T02:50:30.229Z,0.00
2023-05-10T02:51:30.212Z,0.00
2023-05-10T02:52:30.212Z,0.00
2023-05-10T02:53:30.191Z,0.00
2023-05-10T02:54:30.141Z,0.00
2023-05-10T02:55:30.152Z,0.00
2023-05-10T02:56:30.152Z,5.62
2023-05-10T02:57:30.145Z,5.62
2023-05-10T02:58:30.105Z,5.62
2023-05-10T02:59:30.108Z,5.62
2023-05-10T03:00:30.090Z,5.62
2023-05-10T03:01:30.134Z,5.62
2023-05-10T03:02:30.122Z,5.62
2023-05-10T03:03:30.058Z,5.62
2023-05-10T03:04:30.119Z,5.62
2023-05-10T03:05:30.047Z,5.62
2023-05-10T03:06:30.022Z,5.62
2023-05-10T03:07:30.025Z,5.62
2023-05-10T03:08:30.051Z,5.62
2023-05-10T03:09:29.999Z,5.62
2023-05-10T03:10:29.982Z,5.62
2023-05-10T03:11:29.998Z,5.62
2023-05-10T03:12:29.974Z,11.25
2023-05-10T03:13:30.000Z,11.25
2023-05-10T03:14:29.977Z,11.25
2023-05-10T03:15:29.961Z,11.25
2023-05-10T03:16:30.004Z,11.25
2023-05-10T03:17:29.941Z,11.25
2023-05-10T03:18:29.911Z,11.25
2023-05-10T03:19:29.910Z,11.25
2023-05-10T03:20:29.918Z,11.25
2023-05-10T03:21:29.872Z,11.25
2023-05-10T03:22:29.857Z,11.25
2023-05-10T03:23:29.859Z,11.25
2023-05-10T03:24:29.842Z,11.25
2023-05-10T03:25:29.834Z,11.25
2023-05-10T03:26:29.850Z,16.88
2023-05-10T03:27:29.817Z,16.88
2023-05-10T03:28:29.809Z,16.88
2023-05-10T03:29:29.793Z,16.88
2023-05-10T03:30:29.778Z,16.88
2023-05-10T03:31:29.836Z,16.88
2023-05-10T03:32:29.836Z,16.88
2023-05-10T03:33:29.754Z,16.88
2023-05-10T03:34:29.746Z,16.88
2023-05-10T03:35:29.734Z,16.88
2023-05-10T03:36:29.738Z,16.88
2023-05-10T03:37:29.715Z,16.88
2023-05-10T03:38:30.663Z,16.88
2023-05-10T03:39:29.693Z,16.88
2023-05-10T03:40:29.680Z,22.50
2023-05-10T03:41:29.691Z,22.50
2023-05-10T03:42:29.654Z,22.50
2023-05-10T03:43:29.662Z,22.50
2023-05-10T03:44:29.678Z,22.50
2023-05-10T03:45:29.649Z,22.50
2023-05-10T03:46:29.666Z,22.50
2023-05-10T03:47:29.653Z,22.50
2023-05-10T03:48:29.601Z,22.50
2023-05-10T03:49:29.600Z,22.50
2023-05-10T03:50:29.631Z,22.50
2023-05-10T03:51:29.566Z,22.50
2023-05-10T03:52:29.569Z,22.50
2023-05-10T03:53:29.547Z,22.50
2023-05-10T03:54:29.536Z,22.50
2023-05-10T03:55:29.538Z,22.50
2023-05-10T03:56:29.544Z,22.50
2023-05-10T03:57:29.509Z,28.12
2023-05-10T03:58:29.500Z,28.12
2023-05-10T03:59:29.491Z,28.12
2023-05-10T04:00:29.475Z,28.12
2023-05-10T04:01:29.471Z,28.12
2023-05-10T04:02:29.561Z,28.12
2023-05-10T04:03:29.512Z,28.12
2023-05-10T04:04:29.434Z,28.12
2023-05-10T04:05:29.432Z,28.12
2023-05-10T04:06:29.463Z,28.12
2023-05-10T04:07:29.405Z,28.12
2023-05-10T04:08:29.426Z,28.12
2023-05-10T04:09:29.381Z,28.12
2023-05-10T04:10:29.376Z,28.12
2023-05-10T04:11:29.369Z,28.12
2023-05-10T04:12:29.354Z,33.75
2023-05-10T04:13:29.394Z,33.75
2023-05-10T04:14:29.362Z,33.75
2023-05-10T04:15:29.322Z,39.38
2023-05-10T04:16:29.340Z,39.38
2023-05-10T04:17:29.325Z,45.00
2023-05-10T04:18:29.292Z,45.00
2023-05-10T04:19:29.525Z,45.00
2023-05-10T04:20:29.324Z,45.00
2023-05-10T04:21:29.266Z,45.00
2023-05-10T04:22:29.268Z,45.00
2023-05-10T04:23:29.255Z,39.38
2023-05-10T04:24:29.235Z,39.38
2023-05-10T04:25:29.222Z,39.38
2023-05-10T04:26:29.245Z,39.38
2023-05-10T04:27:29.216Z,39.38
2023-05-10T04:28:29.215Z,39.38
2023-05-10T04:29:29.182Z,39.38
2023-05-10T04:30:29.170Z,45.00
2023-05-10T04:31:29.221Z,45.00
2023-05-10T04:32:29.240Z,45.00
2023-05-10T04:33:29.156Z,50.62
2023-05-10T04:34:29.137Z,56.25
2023-05-10T04:35:29.131Z,50.62
2023-05-10T04:36:29.123Z,50.62
2023-05-10T04:37:29.116Z,56.25
2023-05-10T04:38:29.135Z,61.88
2023-05-10T04:39:29.080Z,61.88
2023-05-10T04:40:29.076Z,61.88
2023-05-10T04:41:29.058Z,61.88
2023-05-10T04:42:29.049Z,67.50
2023-05-10T04:43:29.033Z,73.12
2023-05-10T04:44:29.054Z,84.38
2023-05-10T04:45:29.019Z,84.38
2023-05-10T04:46:29.076Z,78.75
2023-05-10T04:47:29.016Z,78.75
2023-05-10T04:48:28.993Z,78.75
2023-05-10T04:49:28.976Z,78.75
2023-05-10T04:50:28.995Z,67.50
2023-05-10T04:51:28.959Z,61.88
2023-05-10T04:52:28.950Z,61.88
2023-05-10T04:53:28.946Z,61.88
2023-05-10T04:54:28.925Z,56.25
2023-05-10T04:55:28.919Z,56.25
2023-05-10T04:56:29.022Z,50.62
2023-05-10T04:57:28.909Z,50.62
2023-05-10T04:58:28.891Z,50.62
2023-05-10T04:59:28.888Z,50.62
2023-05-10T05:00:28.868Z,50.62
2023-05-10T05:01:28.953Z,50.62
2023-05-10T05:02:29.021Z,50.62
2023-05-10T05:03:28.894Z,50.62
2023-05-10T05:04:28.846Z,50.62
2023-05-10T05:05:28.813Z,50.62
2023-05-10T05:06:28.813Z,56.25
2023-05-10T05:07:28.798Z,61.88
2023-05-10T05:08:28.816Z,67.50
2023-05-10T05:09:28.795Z,73.12
2023-05-10T05:10:28.775Z,78.75
2023-05-10T05:11:28.758Z,78.75
2023-05-10T05:12:28.756Z,78.75
2023-05-10T05:13:28.819Z,78.75
2023-05-10T05:14:28.776Z,78.75
2023-05-10T05:15:28.726Z,78.75
2023-05-10T05:16:28.765Z,84.38
2023-05-10T05:17:28.735Z,84.38
2023-05-10T05:18:28.688Z,90.00
2023-05-10T05:19:28.674Z,90.00
2023-05-10T05:20:28.697Z,90.00
2023-05-10T05:21:28.654Z,95.62
2023-05-10T05:22:28.659Z,95.62
2023-05-10T05:23:28.630Z,101.25
2023-05-10T05:24:28.624Z,101.25
2023-05-10T05:25:28.615Z,106.88
2023-05-10T05:26:28.635Z,112.50
2023-05-10T05:27:28.604Z,112.50
2023-05-10T05:28:28.600Z,118.12
2023-05-10T05:29:28.567Z,118.12
2023-05-10T05:30:28.562Z,118.12
2023-05-10T05:31:28.605Z,118.12
2023-05-10T05:32:28.791Z,118.12
2023-05-10T05:33:28.540Z,118.12
2023-05-10T05:34:28.531Z,123.75
2023-05-10T05:35:28.501Z,129.38
2023-05-10T05:36:28.495Z,123.75
2023-05-10T05:37:28.488Z,118.12
2023-05-10T05:38:28.522Z,118.12
2023-05-10T05:39:28.471Z,118.12
2023-05-10T05:40:28.466Z,118.12
2023-05-10T05:41:28.444Z,118.12
2023-05-10T05:42:28.443Z,118.12
2023-05-10T05:43:28.450Z,118.12
2023-05-10T05:44:28.449Z,118.12
2023-05-10T05:45:28.408Z,118.12
2023-05-10T05:46:28.436Z,118.12
2023-05-10T05:47:28.408Z,118.12
2023-05-10T05:48:28.375Z,118.12
2023-05-10T05:49:28.365Z,118.12
2023-05-10T05:50:28.393Z,118.12
2023-05-10T05:51:28.352Z,112.50
2023-05-10T05:52:28.343Z,112.50
2023-05-10T05:53:28.358Z,118.12
2023-05-10T05:54:28.343Z,118.12
2023-05-10T05:55:28.305Z,118.12
2023-05-10T05:56:28.322Z,118.12
2023-05-10T05:57:28.286Z,112.50
2023-05-10T05:58:28.344Z,106.88
2023-05-10T05:59:28.262Z,112.50
2023-05-10T06:00:28.306Z,112.50
2023-05-10T06:01:28.229Z,112.50
2023-05-10T06:02:28.318Z,118.12
2023-05-10T06:03:28.327Z,123.75
2023-05-10T06:04:28.288Z,123.75
2023-05-10T06:05:28.197Z,123.75
2023-05-10T06:06:28.194Z,123.75
2023-05-10T06:07:28.170Z,123.75
2023-05-10T06:08:28.196Z,123.75
2023-05-10T06:09:28.172Z,123.75
2023-05-10T06:10:28.209Z,123.75
2023-05-10T06:11:28.138Z,123.75
2023-05-10T06:12:28.122Z,118.12
2023-05-10T06:13:28.206Z,112.50
2023-05-10T06:14:28.143Z,112.50
2023-05-10T06:15:28.115Z,106.88
2023-05-10T06:16:28.145Z,106.88
2023-05-10T06:17:29.898Z,106.88
2023-05-10T06:18:28.078Z,101.25
2023-05-10T06:19:28.054Z,106.88
2023-05-10T06:20:28.134Z,106.88
2023-05-10T06:21:28.040Z,106.88
2023-05-10T06:22:28.039Z,106.88
2023-05-10T06:23:28.045Z,106.88
2023-05-10T06:24:28.013Z,106.88
2023-05-10T06:25:27.992Z,106.88
2023-05-10T06:26:28.008Z,106.88
2023-05-10T06:27:27.976Z,101.25
2023-05-10T06:28:27.994Z,101.25
2023-05-10T06:29:27.969Z,101.25
2023-05-10T06:30:27.959Z,101.25
2023-05-10T06:31:27.952Z,101.25
2023-05-10T06:32:27.980Z,101.25
2023-05-10T06:33:27.918Z,106.88
2023-05-10T06:34:27.917Z,106.88
2023-05-10T06:35:27.909Z,106.88
2023-05-10T06:36:27.888Z,106.88
2023-05-10T06:37:27.867Z,112.50
2023-05-10T06:38:27.872Z,112.50
2023-05-10T06:39:27.861Z,112.50
2023-05-10T06:40:27.837Z,112.50
2023-05-10T06:41:27.835Z,112.50
2023-05-10T06:42:27.814Z,112.50
2023-05-10T06:43:27.797Z,112.50
2023-05-10T06:44:27.810Z,112.50
2023-05-10T06:45:27.791Z,118.12
2023-05-10T06:46:27.811Z,118.12
2023-05-10T06:47:27.845Z,118.12
2023-05-10T06:48:27.751Z,118.12
2023-05-10T06:49:27.775Z,118.12
2023-05-10T06:50:27.762Z,118.12
2023-05-10T06:51:27.725Z,123.75
2023-05-10T06:52:27.711Z,123.75
2023-05-10T06:53:27.698Z,123.75
2023-05-10T06:54:27.702Z,123.75
2023-05-10T06:55:27.675Z,123.75
2023-05-10T06:56:27.694Z,123.75
2023-05-10T06:57:31.712Z,123.75
2023-05-10T06:58:27.644Z,129.38
2023-05-10T06:59:27.687Z,129.38
2023-05-10T07:00:27.654Z,129.38
2023-05-10T07:01:27.639Z,129.38
2023-05-10T07:02:27.794Z,129.38
2023-05-10T07:03:27.604Z,129.38
2023-05-10T07:04:27.655Z,129.38
2023-05-10T07:05:27.610Z,135.00
2023-05-10T07:06:33.555Z,135.00
2023-05-10T07:07:28.593Z,135.00
2023-05-10T07:08:27.553Z,135.00
2023-05-10T07:09:27.536Z,135.00
2023-05-10T07:10:27.536Z,135.00
2023-05-10T07:11:27.519Z,135.00
2023-05-10T07:12:27.551Z,140.62
2023-05-10T07:13:27.569Z,140.62
2023-05-10T07:14:27.503Z,140.62
2023-05-10T07:15:27.494Z,140.62
2023-05-10T07:16:27.499Z,146.25
2023-05-10T07:17:27.593Z,146.25
2023-05-10T07:18:27.556Z,146.25
2023-05-10T07:19:27.462Z,146.25
2023-05-10T07:20:27.422Z,140.62
2023-05-10T07:21:27.492Z,140.62
2023-05-10T07:22:27.401Z,146.25
2023-05-10T07:23:27.412Z,146.25
2023-05-10T07:24:27.395Z,146.25
2023-05-10T07:25:27.439Z,146.25
2023-05-10T07:26:27.359Z,146.25
2023-05-10T07:27:27.349Z,151.88
2023-05-10T07:28:27.337Z,151.88
2023-05-10T07:29:27.341Z,151.88
2023-05-10T07:30:27.352Z,151.88
2023-05-10T07:31:27.323Z,151.88
2023-05-10T07:32:27.368Z,151.88
2023-05-10T07:33:27.296Z,151.88
2023-05-10T07:34:27.273Z,151.88
2023-05-10T07:35:27.269Z,157.50
2023-05-10T07:36:27.285Z,157.50
2023-05-10T07:37:27.265Z,157.50
2023-05-10T07:38:27.237Z,157.50
2023-05-10T07:39:28.211Z,157.50
2023-05-10T07:40:27.232Z,157.50
2023-05-10T07:41:27.206Z,157.50
2023-05-10T07:42:27.196Z,157.50
2023-05-10T07:43:27.203Z,157.50
2023-05-10T07:44:27.176Z,157.50
2023-05-10T07:45:27.206Z,163.12
2023-05-10T07:46:27.239Z,163.12
2023-05-10T07:47:27.211Z,163.12
2023-05-10T07:48:27.168Z,163.12
2023-05-10T07:49:27.151Z,163.12
2023-05-10T07:50:27.107Z,163.12
2023-05-10T07:51:27.102Z,163.12
2023-05-10T07:52:27.127Z,163.12
2023-05-10T07:53:27.081Z,163.12
2023-05-10T07:54:27.092Z,163.12
2023-05-10T07:55:27.083Z,163.12
2023-05-10T07:56:27.069Z,163.12
2023-05-10T07:57:27.039Z,163.12
2023-05-10T07:58:27.029Z,163.12
2023-05-10T07:59:27.030Z,163.12
2023-05-10T08:00:27.027Z,163.12
2023-05-10T08:01:27.012Z,163.12
2023-05-10T08:02:27.068Z,163.12
2023-05-10T08:03:27.075Z,163.12
2023-05-10T08:04:27.001Z,163.12
2023-05-10T08:05:26.945Z,163.12
2023-05-10T08:06:26.948Z,157.50
2023-05-10T08:07:26.951Z,163.12
2023-05-10T08:08:26.917Z,168.75
2023-05-10T08:09:26.926Z,168.75
2023-05-10T08:10:26.901Z,168.75
2023-05-10T08:11:26.889Z,168.75
2023-05-10T08:12:26.890Z,168.75
2023-05-10T08:13:26.894Z,168.75
2023-05-10T08:14:26.862Z,168.75
2023-05-10T08:15:26.843Z,168.75
2023-05-10T08:16:26.859Z,168.75
2023-05-10T08:17:26.861Z,168.75
2023-05-10T08:18:26.850Z,168.75
2023-05-10T08:19:26.832Z,168.75
2023-05-10T08:20:26.805Z,168.75
2023-05-10T08:21:26.791Z,168.75
2023-05-10T08:22:26.789Z,168.75
2023-05-10T08:23:26.770Z,168.75
2023-05-10T08:24:26.765Z,168.75
2023-05-10T08:25:26.767Z,168.75
2023-05-10T08:26:26.747Z,168.75
2023-05-10T08:27:26.749Z,168.75
2023-05-10T08:28:26.714Z,168.75
2023-05-10T08:29:28.349Z,174.38
2023-05-10T08:30:26.701Z,174.38
2023-05-10T08:31:27.260Z,168.75
2023-05-10T08:32:26.779Z,174.38
2023-05-10T08:33:26.720Z,174.38
2023-05-10T08:34:26.810Z,174.38
2023-05-10T08:35:26.652Z,174.38
2023-05-10T08:36:26.635Z,174.38
2023-05-10T08:37:26.668Z,174.38
2023-05-10T08:38:26.606Z,174.38
2023-05-10T08:39:30.410Z,174.38
2023-05-10T08:40:26.602Z,180.00
2023-05-10T08:41:26.580Z,180.00
2023-05-10T08:42:26.576Z,180.00
2023-05-10T08:43:26.611Z,180.00
2023-05-10T08:44:26.552Z,180.00
2023-05-10T08:45:26.539Z,180.00
2023-05-10T08:46:26.573Z,180.00
2023-05-10T08:47:26.645Z,180.00
2023-05-10T08:48:26.558Z,180.00
2023-05-10T08:49:26.528Z,180.00
2023-05-10T08:50:26.480Z,180.00
2023-05-10T08:51:26.481Z,180.00
2023-05-10T08:52:26.464Z,180.00
2023-05-10T08:53:26.449Z,180.00
2023-05-10T08:54:26.448Z,185.62
2023-05-10T08:55:26.468Z,185.62
2023-05-10T08:56:26.418Z,185.62
2023-05-10T08:57:26.426Z,185.62
2023-05-10T08:58:26.398Z,185.62
2023-05-10T08:59:26.432Z,185.62
2023-05-10T09:00:26.411Z,185.62
2023-05-10T09:01:26.420Z,185.62
2023-05-10T09:02:26.443Z,185.62
2023-05-10T09:03:26.356Z,185.62
2023-05-10T09:04:26.498Z,185.62
2023-05-10T09:05:26.370Z,185.62
2023-05-10T09:06:26.326Z,185.62
2023-05-10T09:07:26.349Z,185.62
2023-05-10T09:08:26.297Z,185.62
2023-05-10T09:09:26.314Z,185.62
2023-05-10T09:10:26.285Z,185.62
2023-05-10T09:11:26.272Z,185.62
2023-05-10T09:12:26.277Z,185.62
2023-05-10T09:13:26.270Z,185.62
2023-05-10T09:14:26.240Z,185.62
2023-05-10T09:15:26.262Z,185.62
2023-05-10T09:16:26.254Z,185.62
2023-05-10T09:17:26.296Z,180.00
2023-05-10T09:18:28.037Z,180.00
2023-05-10T09:19:26.225Z,180.00
2023-05-10T09:20:26.182Z,174.38
2023-05-10T09:21:26.202Z,174.38
2023-05-10T09:22:26.153Z,174.38
2023-05-10T09:23:26.156Z,174.38
2023-05-10T09:24:26.127Z,174.38
2023-05-10T09:25:26.173Z,174.38
2023-05-10T09:26:26.108Z,174.38
2023-05-10T09:27:26.099Z,168.75
2023-05-10T09:28:26.123Z,163.12
2023-05-10T09:29:26.082Z,163.12
2023-05-10T09:30:26.073Z,163.12
2023-05-10T09:31:26.290Z,163.12
2023-05-10T09:32:26.086Z,163.12
2023-05-10T09:33:26.049Z,163.12
2023-05-10T09:34:26.029Z,163.12
2023-05-10T09:35:28.030Z,168.75
2023-05-10T09:36:26.007Z,163.12
2023-05-10T09:37:26.065Z,163.12
2023-05-10T09:38:25.988Z,157.50
2023-05-10T09:39:25.979Z,163.12
2023-05-10T09:40:25.972Z,163.12
2023-05-10T09:41:25.981Z,163.12
2023-05-10T09:42:25.959Z,163.12
2023-05-10T09:43:25.963Z,168.75
2023-05-10T09:44:25.933Z,174.38
2023-05-10T09:45:25.925Z,174.38
2023-05-10T09:46:25.938Z,174.38
2023-05-10T09:47:25.965Z,174.38
2023-05-10T09:48:25.906Z,180.00
2023-05-10T09:49:25.910Z,180.00
2023-05-10T09:50:25.870Z,174.38
2023-05-10T09:51:25.873Z,180.00
2023-05-10T09:52:25.848Z,180.00
2023-05-10T09:53:25.852Z,180.00
2023-05-10T09:54:25.830Z,180.00
2023-05-10T09:55:25.849Z,180.00
2023-05-10T09:56:25.807Z,180.00
2023-05-10T09:57:25.818Z,185.62
2023-05-10T09:58:25.802Z,185.62
2023-05-10T09:59:25.779Z,185.62
2023-05-10T10:00:25.773Z,185.62
2023-05-10T10:01:25.845Z,180.00
2023-05-10T10:02:25.782Z,180.00
2023-05-10T10:03:26.065Z,180.00
2023-05-10T10:04:25.764Z,180.00
2023-05-10T10:05:25.751Z,180.00
2023-05-10T10:06:30.175Z,180.00
2023-05-10T10:07:26.734Z,180.00
2023-05-10T10:08:25.697Z,180.00
2023-05-10T10:09:25.692Z,180.00
2023-05-10T10:10:25.678Z,180.00
2023-05-10T10:11:25.669Z,180.00
2023-05-10T10:12:25.660Z,180.00
2023-05-10T10:13:25.666Z,174.38
2023-05-10T10:14:25.625Z,174.38
2023-05-10T10:15:25.626Z,174.38
2023-05-10T10:16:25.723Z,174.38
2023-05-10T10:17:25.639Z,174.38
2023-05-10T10:18:25.615Z,168.75
2023-05-10T10:19:26.352Z,163.12
2023-05-10T10:20:25.583Z,157.50
2023-05-10T10:21:25.566Z,163.12
2023-05-10T10:22:25.555Z,157.50
2023-05-10T10:23:25.554Z,157.50
2023-05-10T10:24:25.533Z,163.12
2023-05-10T10:25:25.554Z,168.75
2023-05-10T10:26:25.522Z,168.75
2023-05-10T10:27:25.504Z,174.38
2023-05-10T10:28:28.060Z,180.00
2023-05-10T10:29:25.483Z,180.00
2023-05-10T10:30:25.481Z,180.00
2023-05-10T10:31:25.552Z,180.00
2023-05-10T10:32:25.510Z,180.00
2023-05-10T10:33:28.832Z,180.00
2023-05-10T10:34:25.435Z,180.00
2023-05-10T10:35:25.425Z,180.00
2023-05-10T10:36:25.401Z,180.00
2023-05-10T10:37:26.358Z,180.00
2023-05-10T10:38:25.396Z,180.00
2023-05-10T10:39:25.377Z,180.00
2023-05-10T10:40:25.350Z,180.00
2023-05-10T10:41:25.350Z,180.00
2023-05-10T10:42:25.334Z,180.00
2023-05-10T10:43:25.455Z,180.00
2023-05-10T10:44:25.310Z,180.00
2023-05-10T10:45:25.306Z,185.62
2023-05-10T10:46:25.306Z,185.62
2023-05-10T10:47:25.365Z,185.62
2023-05-10T10:48:25.262Z,185.62
2023-05-10T10:49:25.282Z,185.62
2023-05-10T10:50:25.255Z,185.62
2023-05-10T10:51:25.233Z,185.62
2023-05-10T10:52:25.225Z,180.00
2023-05-10T10:53:25.238Z,180.00
2023-05-10T10:54:25.220Z,180.00
2023-05-10T10:55:25.246Z,180.00
2023-05-10T10:56:25.254Z,174.38
2023-05-10T10:57:25.187Z,180.00
2023-05-10T10:58:25.177Z,180.00
2023-05-10T10:59:25.160Z,174.38
2023-05-10T11:00:25.180Z,174.38
2023-05-10T11:01:25.229Z,174.38
2023-05-10T11:02:25.186Z,174.38
2023-05-10T11:03:25.130Z,174.38
2023-05-10T11:04:25.132Z,174.38
2023-05-10T11:05:25.127Z,174.38
2023-05-10T11:06:25.101Z,174.38
2023-05-10T11:07:25.106Z,174.38
2023-05-10T11:08:25.084Z,174.38
2023-05-10T11:09:25.069Z,174.38
2023-05-10T11:10:25.072Z,174.38
2023-05-10T11:11:25.039Z,180.00
2023-05-10T11:12:25.037Z,174.38
2023-05-10T11:13:25.057Z,168.75
2023-05-10T11:14:25.017Z,168.75
2023-05-10T11:15:25.016Z,168.75
2023-05-10T11:16:25.188Z,163.12
2023-05-10T11:17:25.115Z,168.75
2023-05-10T11:18:25.001Z,168.75
2023-05-10T11:19:24.986Z,163.12
2023-05-10T11:20:24.958Z,168.75
2023-05-10T11:21:24.939Z,168.75
2023-05-10T11:22:24.927Z,168.75
2023-05-10T11:23:24.917Z,174.38
2023-05-10T11:24:24.907Z,174.38
2023-05-10T11:25:24.930Z,174.38
2023-05-10T11:26:24.887Z,174.38
2023-05-10T11:27:24.880Z,174.38
2023-05-10T11:28:24.869Z,174.38
2023-05-10T11:29:24.867Z,174.38
2023-05-10T11:30:24.871Z,174.38
2023-05-10T11:31:25.068Z,174.38
2023-05-10T11:32:24.837Z,180.00
2023-05-10T11:33:24.818Z,180.00
2023-05-10T11:34:24.805Z,180.00
2023-05-10T11:35:24.795Z,185.62
2023-05-10T11:36:24.781Z,185.62
2023-05-10T11:37:24.789Z,185.62
2023-05-10T11:38:24.767Z,180.00
2023-05-10T11:39:24.761Z,180.00
2023-05-10T11:40:24.755Z,180.00
2023-05-10T11:41:24.759Z,174.38
2023-05-10T11:42:24.729Z,174.38
2023-05-10T11:43:24.804Z,174.38
2023-05-10T11:44:24.721Z,174.38
2023-05-10T11:45:24.708Z,174.38
2023-05-10T11:46:24.722Z,174.38
2023-05-10T11:47:24.688Z,174.38
2023-05-10T11:48:24.709Z,174.38
2023-05-10T11:49:24.698Z,168.75
2023-05-10T11:50:24.650Z,163.12
2023-05-10T11:51:24.658Z,168.75
2023-05-10T11:52:24.642Z,168.75
2023-05-10T11:53:25.940Z,163.12
2023-05-10T11:54:24.617Z,157.50
2023-05-10T11:55:24.657Z,157.50
2023-05-10T11:56:24.714Z,157.50
2023-05-10T11:57:24.587Z,157.50
2023-05-10T11:58:24.579Z,163.12
2023-05-10T11:59:24.561Z,163.12
2023-05-10T12:00:24.553Z,157.50
2023-05-10T12:01:24.576Z,163.12
2023-05-10T12:02:24.660Z,163.12
2023-05-10T12:03:24.653Z,157.50
2023-05-10T12:04:24.523Z,157.50
2023-05-10T12:05:24.508Z,151.88
2023-05-10T12:06:24.488Z,151.88
2023-05-10T12:07:24.523Z,157.50
2023-05-10T12:08:24.469Z,157.50
2023-05-10T12:10:24.451Z,157.50
2023-05-10T12:11:24.440Z,163.12
2023-05-10T12:12:24.428Z,157.50
2023-05-10T12:13:24.445Z,157.50
2023-05-10T12:14:24.400Z,163.12
2023-05-10T12:15:24.450Z,163.12
2023-05-10T12:16:24.436Z,163.12
2023-05-10T12:17:24.468Z,163.12
2023-05-10T12:18:24.440Z,163.12
2023-05-10T12:19:24.392Z,163.12
2023-05-10T12:20:24.365Z,163.12
2023-05-10T12:21:24.351Z,163.12
2023-05-10T12:22:24.347Z,163.12
2023-05-10T12:23:24.325Z,163.12
2023-05-10T12:24:24.336Z,168.75
2023-05-10T12:25:24.332Z,168.75
2023-05-10T12:26:24.310Z,163.12
2023-05-10T12:27:24.286Z,163.12
2023-05-10T12:28:24.274Z,163.12
2023-05-10T12:29:24.264Z,157.50
2023-05-10T12:30:24.257Z,163.12
2023-05-10T12:31:24.664Z,163.12
2023-05-10T12:32:24.304Z,151.88
2023-05-10T12:33:24.231Z,157.50
2023-05-10T12:34:24.228Z,151.88
2023-05-10T12:35:24.210Z,157.50
2023-05-10T12:36:24.199Z,163.12
2023-05-10T12:37:24.218Z,168.75
2023-05-10T12:38:24.195Z,168.75
2023-05-10T12:39:24.171Z,174.38
2023-05-10T12:40:24.163Z,168.75
2023-05-10T12:41:24.165Z,168.75
2023-05-10T12:42:24.127Z,168.75
2023-05-10T12:43:24.152Z,174.38
2023-05-10T12:44:24.127Z,168.75
2023-05-10T12:45:24.174Z,168.75